Time;durP1;ratioP1;P1;durP2;ratioP2;P2;SDS_P1;SDS_P2;PMS_P1;PMS_P2;Temp;Humidity;BMP_temperature;BMP_pressure;BME280_temperature;BME280_humidity;BME280_pressure;Samples;Min_cycle;Max_cycle;Signal;HPM_P1;HPM_P2
2024/03/07 00:00:16;;;;;;;74.35;48.67;;;3.10;99.90;;;;;;4972209;28;20122;-70
2024/03/07 00:02:50;;;;;;;72.70;47.30;;;3.20;99.90;;;;;;4969745;28;20487;-68
2024/03/07 00:05:19;;;;;;;69.57;47.22;;;3.20;99.90;;;;;;4975957;28;20556;-71
2024/03/07 00:07:47;;;;;;;72.90;47.80;;;3.30;99.90;;;;;;4973856;28;20053;-70
2024/03/07 00:10:15;;;;;;;67.95;45.95;;;3.30;99.90;;;;;;4976473;28;20046;-70
2024/03/07 00:12:43;;;;;;;61.97;42.10;;;3.30;99.90;;;;;;4966883;28;20707;-70
2024/03/07 00:15:12;;;;;;;67.97;44.58;;;3.30;99.90;;;;;;4978226;28;20137;-71
2024/03/07 00:17:41;;;;;;;84.80;50.20;;;3.00;99.90;;;;;;4973373;28;21012;-70
2024/03/07 00:20:09;;;;;;;76.90;47.10;;;2.80;99.90;;;;;;4972824;28;20074;-70
2024/03/07 00:22:37;;;;;;;69.20;43.55;;;2.90;99.90;;;;;;4969946;28;20046;-70
2024/03/07 00:25:05;;;;;;;76.72;43.00;;;2.70;99.90;;;;;;4975992;28;20051;-68
2024/03/07 00:27:33;;;;;;;71.07;39.70;;;2.30;99.90;;;;;;4975737;28;20150;-69
2024/03/07 00:30:01;;;;;;;69.68;40.58;;;2.00;99.90;;;;;;4972029;28;20747;-69
2024/03/07 00:32:29;;;;;;;72.25;42.60;;;1.90;99.90;;;;;;4972706;28;20482;-71
2024/03/07 00:34:57;;;;;;;74.03;41.65;;;1.90;99.90;;;;;;4949827;28;20521;-72
2024/03/07 00:37:27;;;;;;;73.03;41.20;;;1.90;99.90;;;;;;4973950;28;20069;-70
2024/03/07 00:39:54;;;;;;;73.53;42.08;;;2.00;99.90;;;;;;4979467;28;20070;-69
2024/03/07 00:42:22;;;;;;;83.93;44.38;;;2.00;99.90;;;;;;4970037;28;20061;-71
2024/03/07 00:44:49;;;;;;;84.85;45.97;;;2.00;99.90;;;;;;4987547;28;20141;-71
2024/03/07 00:47:19;;;;;;;86.45;45.08;;;2.00;99.90;;;;;;4984454;28;20045;-72
2024/03/07 00:49:47;;;;;;;76.93;42.85;;;1.90;99.90;;;;;;4981754;28;20042;-73
2024/03/07 00:52:15;;;;;;;79.78;44.47;;;1.90;99.90;;;;;;4975880;28;20053;-71
2024/03/07 00:54:42;;;;;;;82.63;42.90;;;1.90;99.90;;;;;;4973559;28;20337;-70
2024/03/07 00:57:10;;;;;;;80.00;42.83;;;1.80;99.90;;;;;;4971192;28;20248;-71
2024/03/07 00:59:37;;;;;;;82.15;40.45;;;1.70;99.90;;;;;;4952572;28;20682;-71
2024/03/07 01:02:04;;;;;;;76.93;39.25;;;1.20;99.90;;;;;;4966723;28;20042;-68
2024/03/07 01:04:33;;;;;;;76.72;39.55;;;0.90;99.90;;;;;;4963991;28;20065;-68
2024/03/07 01:07:00;;;;;;;86.35;41.83;;;0.70;99.90;;;;;;4984731;28;20038;-69
2024/03/07 01:09:28;;;;;;;96.15;42.50;;;0.70;99.90;;;;;;4976032;28;20490;-69
2024/03/07 01:11:56;;;;;;;91.45;41.78;;;0.80;99.90;;;;;;4968237;28;20058;-69
2024/03/07 01:14:23;;;;;;;91.32;43.50;;;0.90;99.90;;;;;;4971567;28;20557;-68
2024/03/07 01:16:50;;;;;;;89.20;41.08;;;0.60;99.90;;;;;;4971636;28;20045;-69
2024/03/07 01:19:17;;;;;;;93.35;43.35;;;0.60;99.90;;;;;;4973388;28;20137;-68
2024/03/07 01:21:45;;;;;;;100.05;45.13;;;0.60;99.90;;;;;;4968710;28;20531;-69
2024/03/07 01:24:12;;;;;;;89.70;42.13;;;0.60;99.90;;;;;;4966851;28;20156;-69
2024/03/07 01:26:39;;;;;;;94.65;43.78;;;0.60;99.90;;;;;;4971697;28;20096;-69
2024/03/07 01:29:06;;;;;;;93.63;45.40;;;0.70;99.90;;;;;;4974959;28;20641;-69
2024/03/07 01:31:34;;;;;;;93.32;42.75;;;0.70;99.90;;;;;;4950661;28;20050;-69
2024/03/07 01:34:01;;;;;;;87.75;43.25;;;0.70;99.90;;;;;;4965157;28;20098;-68
2024/03/07 01:36:28;;;;;;;94.35;42.53;;;0.50;99.90;;;;;;4979023;28;20074;-70
2024/03/07 01:38:55;;;;;;;98.28;42.58;;;0.40;99.90;;;;;;4976444;28;21368;-70
2024/03/07 01:41:22;;;;;;;98.93;44.80;;;0.30;99.90;;;;;;4980919;28;20047;-72
2024/03/07 01:43:49;;;;;;;111.97;47.35;;;0.30;99.90;;;;;;4973303;28;20038;-71
2024/03/07 01:46:16;;;;;;;104.22;45.70;;;0.40;99.90;;;;;;4971060;28;20570;-71
2024/03/07 01:48:46;;;;;;;110.88;45.53;;;0.50;99.90;;;;;;4973761;28;21422;-69
2024/03/07 01:51:14;;;;;;;101.30;44.78;;;0.40;99.90;;;;;;4967501;28;20054;-70
2024/03/07 01:53:41;;;;;;;104.43;45.80;;;0.40;99.90;;;;;;4966201;28;20050;-72
2024/03/07 01:56:08;;;;;;;97.35;41.58;;;0.40;99.90;;;;;;4966609;28;20051;-71
2024/03/07 01:58:36;;;;;;;93.68;42.40;;;0.40;99.90;;;;;;4968732;28;20557;-71
2024/03/07 02:01:03;;;;;;;94.97;42.67;;;0.40;99.90;;;;;;4949635;28;20745;-70
2024/03/07 02:03:30;;;;;;;95.13;43.13;;;0.30;99.90;;;;;;4951774;28;20046;-71
2024/03/07 02:05:58;;;;;;;96.25;43.33;;;0.30;99.90;;;;;;4938591;28;20050;-72
2024/03/07 02:08:27;;;;;;;87.57;42.42;;;0.30;99.90;;;;;;4953589;28;20049;-70
2024/03/07 02:10:54;;;;;;;102.50;45.58;;;0.20;99.90;;;;;;4968354;28;20101;-71
2024/03/07 02:13:21;;;;;;;104.35;47.40;;;0.20;99.90;;;;;;4971057;28;20526;-71
2024/03/07 02:15:48;;;;;;;107.10;48.08;;;0.30;99.90;;;;;;4972768;28;20523;-71
2024/03/07 02:18:15;;;;;;;108.88;49.72;;;0.40;99.90;;;;;;4964532;28;20499;-71
2024/03/07 02:20:46;;;;;;;109.05;49.10;;;0.50;99.90;;;;;;4973723;28;20529;-69
2024/03/07 02:23:14;;;;;;;98.75;48.10;;;0.60;99.90;;;;;;4975599;28;20519;-70
2024/03/07 02:25:42;;;;;;;107.53;50.47;;;0.80;99.90;;;;;;4961724;28;20058;-68
2024/03/07 02:28:09;;;;;;;102.68;47.60;;;0.90;99.90;;;;;;4952192;28;20627;-70
2024/03/07 02:30:36;;;;;;;109.53;52.90;;;0.80;99.90;;;;;;4953500;28;20070;-69
2024/03/07 02:33:07;;;;;;;118.57;56.67;;;0.80;99.90;;;;;;4967380;28;20034;-71
2024/03/07 02:35:35;;;;;;;102.28;49.13;;;0.80;99.90;;;;;;4963319;28;20054;-71
2024/03/07 02:38:03;;;;;;;103.30;51.63;;;0.90;99.90;;;;;;4961293;28;20046;-71
2024/03/07 02:40:31;;;;;;;109.93;52.90;;;1.10;99.90;;;;;;4968185;28;20570;-70
2024/03/07 02:42:58;;;;;;;95.50;49.22;;;1.10;99.90;;;;;;4966570;28;20133;-71
2024/03/07 02:45:26;;;;;;;97.78;50.25;;;1.20;99.90;;;;;;4970675;28;20093;-71
2024/03/07 02:47:54;;;;;;;100.05;49.25;;;1.40;99.90;;;;;;4973765;28;20054;-70
2024/03/07 02:50:22;;;;;;;90.18;46.75;;;1.30;99.90;;;;;;4971057;28;20141;-72
2024/03/07 02:52:50;;;;;;;100.13;49.85;;;1.20;99.90;;;;;;4967120;28;20894;-71
2024/03/07 02:55:18;;;;;;;97.10;51.17;;;1.20;99.90;;;;;;4965844;28;20435;-71
2024/03/07 02:57:46;;;;;;;97.35;47.78;;;1.30;99.90;;;;;;4965130;28;20054;-71
2024/03/07 03:00:19;;;;;;;90.95;48.97;;;1.40;99.90;;;;;;4965149;28;20466;-71
2024/03/07 03:02:48;;;;;;;97.95;50.45;;;1.40;99.90;;;;;;4972430;28;20053;-72
2024/03/07 03:05:16;;;;;;;95.13;49.83;;;1.30;99.90;;;;;;4961918;28;20046;-71
2024/03/07 03:07:52;;;;;;;94.82;51.05;;;1.20;99.90;;;;;;4971029;28;20551;-71
2024/03/07 03:10:31;;;;;;;92.22;49.67;;;1.20;99.90;;;;;;4965945;28;20085;-71
2024/03/07 03:12:59;;;;;;;93.95;49.97;;;1.30;99.90;;;;;;4969907;28;20046;-71
2024/03/07 03:15:27;;;;;;;96.57;51.60;;;1.10;99.90;;;;;;4968785;28;20043;-71
2024/03/07 03:17:54;;;;;;;87.18;47.72;;;1.00;99.90;;;;;;4970013;28;20070;-72
2024/03/07 03:20:24;;;;;;;83.15;47.15;;;1.00;99.90;;;;;;4964060;28;20141;-72
2024/03/07 03:22:53;;;;;;;98.38;48.78;;;1.00;99.90;;;;;;4969268;28;20050;-71
2024/03/07 03:25:41;;;;;;;95.47;48.30;;;0.70;99.90;;;;;;4972609;28;20049;-71
2024/03/07 03:28:12;;;;;;;89.15;44.03;;;0.50;99.90;;;;;;4975268;28;20050;-69
2024/03/07 03:30:43;;;;;;;88.90;45.88;;;0.50;99.90;;;;;;4969899;28;20128;-68
2024/03/07 03:33:10;;;;;;;85.95;45.72;;;0.30;99.90;;;;;;4972331;28;20050;-69
2024/03/07 03:35:38;;;;;;;86.78;45.67;;;0.30;99.90;;;;;;4969633;28;20125;-69
2024/03/07 03:38:07;;;;;;;91.07;47.00;;;0.30;99.90;;;;;;4976309;28;20854;-70
2024/03/07 03:40:34;;;;;;;89.32;44.33;;;0.40;99.90;;;;;;4966095;28;20120;-68
2024/03/07 03:43:02;;;;;;;86.18;44.50;;;0.50;99.90;;;;;;4977786;28;20046;-70
2024/03/07 03:45:32;;;;;;;92.85;46.85;;;0.40;99.90;;;;;;4981005;28;21756;-70
2024/03/07 03:47:59;;;;;;;88.57;44.90;;;0.30;99.90;;;;;;4973098;28;20569;-68
2024/03/07 03:50:28;;;;;;;88.80;45.38;;;0.20;99.90;;;;;;4965429;28;20049;-68
2024/03/07 03:52:57;;;;;;;90.22;45.60;;;0.00;99.90;;;;;;4972295;28;20041;-69
2024/03/07 03:55:24;;;;;;;95.32;46.78;;;-0.20;99.90;;;;;;4971580;28;20705;-69
2024/03/07 03:57:53;;;;;;;94.57;46.05;;;-0.30;99.90;;;;;;4975879;28;20435;-69
2024/03/07 04:00:22;;;;;;;87.68;45.35;;;-0.40;99.90;;;;;;4961323;28;20059;-68
2024/03/07 04:02:51;;;;;;;94.47;44.75;;;-0.30;99.90;;;;;;4952007;28;20059;-68
2024/03/07 04:05:20;;;;;;;91.85;45.67;;;-0.20;99.90;;;;;;4967337;28;20632;-71
2024/03/07 04:07:47;;;;;;;87.88;42.30;;;-0.20;99.90;;;;;;4976737;28;20806;-70
2024/03/07 04:10:16;;;;;;;92.18;43.85;;;-0.30;99.90;;;;;;4977685;28;20084;-70
2024/03/07 04:12:44;;;;;;;89.75;42.95;;;-0.20;99.90;;;;;;4969009;28;20050;-71
2024/03/07 04:15:16;;;;;;;103.13;44.25;;;-0.30;99.90;;;;;;4976894;28;20118;-70
2024/03/07 04:17:46;;;;;;;89.10;41.65;;;-0.20;99.90;;;;;;4971272;28;20050;-70
2024/03/07 04:20:13;;;;;;;88.22;42.28;;;-0.10;99.90;;;;;;4968137;28;20042;-71
2024/03/07 04:22:41;;;;;;;93.53;43.78;;;-0.10;99.90;;;;;;4965843;28;20077;-68
2024/03/07 04:25:09;;;;;;;99.25;43.80;;;0.00;99.90;;;;;;4974297;28;20110;-67
2024/03/07 04:27:39;;;;;;;94.50;42.78;;;0.20;99.90;;;;;;4973134;28;20077;-69
2024/03/07 04:30:07;;;;;;;94.20;43.88;;;0.30;99.90;;;;;;4967978;28;20053;-69
2024/03/07 04:32:34;;;;;;;92.78;43.40;;;0.40;99.90;;;;;;4972088;28;20065;-67
2024/03/07 04:35:07;;;;;;;92.78;45.03;;;0.50;99.90;;;;;;4963211;28;20043;-70
2024/03/07 04:37:36;;;;;;;94.47;43.83;;;0.60;99.90;;;;;;4973072;28;20042;-67
2024/03/07 04:40:15;;;;;;;93.93;45.65;;;0.60;99.90;;;;;;4970548;28;20050;-69
2024/03/07 04:42:42;;;;;;;94.00;45.30;;;0.80;99.90;;;;;;4955736;28;20043;-70
2024/03/07 04:45:12;;;;;;;95.35;43.55;;;1.00;99.90;;;;;;4947761;28;20134;-71
2024/03/07 04:47:44;;;;;;;87.30;42.78;;;1.10;99.90;;;;;;4966557;28;20463;-70
2024/03/07 04:50:12;;;;;;;93.97;45.58;;;1.20;99.90;;;;;;4977501;28;20050;-72
2024/03/07 04:52:40;;;;;;;87.35;43.58;;;1.20;99.90;;;;;;4967643;28;20145;-72
2024/03/07 04:55:10;;;;;;;88.03;43.80;;;1.30;99.90;;;;;;4969728;28;20546;-70
2024/03/07 04:57:39;;;;;;;86.53;43.55;;;1.40;99.90;;;;;;4962096;28;20058;-70
2024/03/07 05:00:13;;;;;;;86.65;45.03;;;1.60;99.90;;;;;;4968372;28;20728;-71
2024/03/07 05:02:41;;;;;;;82.40;43.17;;;1.70;99.90;;;;;;4983760;28;20058;-70
2024/03/07 05:05:09;;;;;;;77.90;44.63;;;1.90;99.90;;;;;;4966244;28;20056;-71
2024/03/07 05:07:36;;;;;;;87.72;45.20;;;1.80;99.90;;;;;;4964908;28;20053;-71
2024/03/07 05:10:05;;;;;;;79.22;45.13;;;1.80;99.90;;;;;;4977832;28;20659;-71
2024/03/07 05:12:32;;;;;;;78.38;44.83;;;1.90;99.90;;;;;;4967780;28;20053;-71
2024/03/07 05:15:04;;;;;;;86.13;46.35;;;1.90;99.90;;;;;;4976924;28;20700;-70
2024/03/07 05:17:34;;;;;;;87.57;47.10;;;2.00;99.90;;;;;;4988352;28;20046;-72
2024/03/07 05:20:03;;;;;;;77.10;43.72;;;2.10;99.90;;;;;;4970472;28;20049;-71
2024/03/07 05:22:30;;;;;;;76.40;45.50;;;2.20;99.90;;;;;;4978137;28;20053;-71
2024/03/07 05:24:58;;;;;;;76.03;44.55;;;2.10;99.90;;;;;;4963844;28;21003;-71
2024/03/07 05:27:28;;;;;;;76.72;44.35;;;2.20;99.90;;;;;;4978319;28;20145;-72
2024/03/07 05:29:55;;;;;;;77.82;46.90;;;2.20;99.90;;;;;;4978042;28;20050;-70
2024/03/07 05:32:26;;;;;;;74.93;44.42;;;2.30;99.90;;;;;;4974455;28;20046;-71
2024/03/07 05:34:54;;;;;;;78.28;44.10;;;2.50;99.90;;;;;;4962878;28;20546;-71
2024/03/07 05:37:22;;;;;;;75.75;44.45;;;2.50;99.90;;;;;;4950144;28;20034;-70
2024/03/07 05:39:52;;;;;;;77.65;45.92;;;2.60;99.90;;;;;;4970875;28;20615;-70
2024/03/07 05:42:19;;;;;;;74.43;43.47;;;2.60;99.90;;;;;;4969305;28;20828;-71
2024/03/07 05:44:47;;;;;;;74.22;43.78;;;2.70;99.90;;;;;;4968462;28;20073;-71
2024/03/07 05:47:14;;;;;;;69.47;44.38;;;2.70;99.90;;;;;;4970788;28;20051;-71
2024/03/07 05:49:41;;;;;;;73.90;44.65;;;2.70;99.90;;;;;;4963068;28;21508;-70
2024/03/07 05:52:09;;;;;;;72.95;43.78;;;2.80;99.90;;;;;;4972267;28;20053;-71
2024/03/07 05:54:36;;;;;;;72.68;42.97;;;2.80;99.90;;;;;;4970180;28;20051;-69
2024/03/07 05:57:05;;;;;;;75.13;45.20;;;2.90;99.90;;;;;;4953798;28;20047;-71
2024/03/07 05:59:33;;;;;;;73.63;43.15;;;2.90;99.90;;;;;;4932954;28;20057;-72
2024/03/07 06:02:00;;;;;;;72.03;44.85;;;2.90;99.90;;;;;;4976783;28;20051;-70
2024/03/07 06:04:29;;;;;;;66.20;41.83;;;3.00;99.90;;;;;;4965734;28;20050;-72
2024/03/07 06:06:57;;;;;;;72.95;43.25;;;3.00;99.90;;;;;;4962872;28;20713;-71
2024/03/07 06:09:24;;;;;;;79.22;46.63;;;3.00;99.90;;;;;;4974073;28;20043;-70
2024/03/07 06:11:51;;;;;;;73.88;42.85;;;3.00;99.90;;;;;;4963242;28;20411;-72
2024/03/07 06:14:19;;;;;;;69.75;45.20;;;3.00;99.90;;;;;;4973732;28;20433;-70
2024/03/07 06:16:47;;;;;;;72.13;41.92;;;3.00;99.90;;;;;;4963699;28;20038;-69
2024/03/07 06:19:14;;;;;;;75.97;45.45;;;3.00;99.90;;;;;;4975433;28;20046;-70
2024/03/07 06:21:41;;;;;;;69.35;44.00;;;3.00;99.90;;;;;;4969162;28;20133;-68
2024/03/07 06:24:10;;;;;;;68.70;41.83;;;3.00;99.90;;;;;;4973459;28;20169;-71
2024/03/07 06:26:59;;;;;;;69.05;41.88;;;3.10;99.90;;;;;;4969794;28;20778;-71
2024/03/07 06:29:27;;;;;;;71.30;41.53;;;3.20;99.90;;;;;;4972539;28;20170;-71
2024/03/07 06:31:55;;;;;;;67.97;39.33;;;3.20;99.90;;;;;;4981280;28;20053;-71
2024/03/07 06:34:22;;;;;;;65.43;38.47;;;3.30;99.90;;;;;;4962276;28;20069;-71
2024/03/07 06:36:49;;;;;;;67.63;38.38;;;3.30;99.90;;;;;;4965760;28;20544;-72
2024/03/07 06:39:16;;;;;;;66.78;41.25;;;3.40;99.90;;;;;;4979690;28;20138;-72
2024/03/07 06:41:45;;;;;;;68.72;43.00;;;3.40;99.90;;;;;;4969141;28;20053;-70
2024/03/07 06:44:12;;;;;;;63.17;39.42;;;3.40;99.90;;;;;;4972234;28;20619;-71
2024/03/07 06:46:40;;;;;;;67.38;43.58;;;3.40;99.90;;;;;;4967835;28;20186;-72
2024/03/07 06:49:10;;;;;;;69.07;42.97;;;3.40;99.90;;;;;;4976984;28;20046;-71
2024/03/07 06:51:39;;;;;;;65.70;42.33;;;3.40;99.90;;;;;;4981807;28;20047;-72
2024/03/07 06:54:06;;;;;;;67.72;42.42;;;3.40;99.90;;;;;;4961360;28;20042;-71
2024/03/07 06:56:33;;;;;;;72.63;44.03;;;3.40;99.90;;;;;;4973660;28;20096;-72
2024/03/07 06:59:04;;;;;;;69.47;42.80;;;3.50;99.90;;;;;;4971198;28;20046;-71
2024/03/07 07:01:33;;;;;;;60.13;40.97;;;3.50;99.90;;;;;;4976281;28;20041;-71
2024/03/07 07:04:03;;;;;;;70.95;43.35;;;3.50;99.90;;;;;;4967474;28;20047;-71
2024/03/07 07:06:31;;;;;;;71.70;44.83;;;3.50;99.90;;;;;;4970653;28;20078;-70
2024/03/07 07:09:01;;;;;;;65.55;42.75;;;3.50;99.90;;;;;;4976427;28;20064;-71
2024/03/07 07:11:28;;;;;;;74.68;44.22;;;3.40;99.90;;;;;;4966686;28;20046;-71
2024/03/07 07:14:04;;;;;;;66.93;42.75;;;3.40;99.90;;;;;;4970816;28;20172;-71
2024/03/07 07:16:35;;;;;;;72.63;43.85;;;3.30;99.90;;;;;;4971229;28;20038;-72
2024/03/07 07:19:02;;;;;;;75.07;45.45;;;3.20;99.90;;;;;;4973361;28;21230;-71
2024/03/07 07:21:29;;;;;;;73.00;43.55;;;3.30;99.90;;;;;;4975800;28;20044;-71
2024/03/07 07:23:56;;;;;;;72.25;44.78;;;3.30;99.90;;;;;;4972143;28;20125;-71
2024/03/07 07:26:25;;;;;;;77.38;45.53;;;3.30;99.90;;;;;;4971034;28;20101;-70
2024/03/07 07:28:54;;;;;;;76.38;44.22;;;3.30;99.90;;;;;;4968697;28;20602;-71
2024/03/07 07:31:21;;;;;;;80.50;45.25;;;3.20;99.90;;;;;;4982183;28;20049;-72
2024/03/07 07:33:49;;;;;;;87.85;46.90;;;3.30;99.90;;;;;;4968140;28;20153;-70
2024/03/07 07:36:16;;;;;;;77.63;43.45;;;3.40;99.90;;;;;;4960762;28;20050;-72
2024/03/07 07:38:43;;;;;;;77.05;42.67;;;3.40;99.90;;;;;;4960625;28;20066;-71
2024/03/07 07:41:11;;;;;;;76.68;44.70;;;3.40;99.90;;;;;;4969872;28;20054;-71
2024/03/07 07:43:40;;;;;;;78.32;44.80;;;3.50;99.90;;;;;;4979410;28;20329;-71
2024/03/07 07:46:09;;;;;;;78.50;45.05;;;3.50;99.90;;;;;;4970199;28;20042;-71
2024/03/07 07:48:38;;;;;;;77.68;46.10;;;3.50;99.90;;;;;;4972555;28;20149;-72
2024/03/07 07:51:06;;;;;;;80.00;46.80;;;3.60;99.90;;;;;;4972671;28;20856;-71
2024/03/07 07:53:34;;;;;;;77.60;45.92;;;3.60;99.90;;;;;;4967297;28;20142;-71
2024/03/07 07:56:02;;;;;;;80.20;48.78;;;3.80;99.90;;;;;;4972701;28;20050;-72
2024/03/07 07:58:29;;;;;;;83.05;49.25;;;3.80;99.90;;;;;;4973851;28;20070;-72
2024/03/07 08:00:57;;;;;;;84.18;50.50;;;3.90;99.90;;;;;;4978645;28;20058;-70
2024/03/07 08:03:24;;;;;;;91.70;51.80;;;4.00;99.90;;;;;;4979693;28;20096;-69
2024/03/07 08:05:51;;;;;;;99.80;53.70;;;4.00;99.90;;;;;;4970898;28;20039;-69
2024/03/07 08:08:18;;;;;;;104.82;56.70;;;4.10;99.90;;;;;;4977193;28;20246;-70
2024/03/07 08:10:47;;;;;;;104.35;55.92;;;4.00;99.90;;;;;;4971532;28;20051;-69
2024/03/07 08:13:14;;;;;;;106.18;56.65;;;4.00;99.90;;;;;;4965577;28;20515;-72
2024/03/07 08:15:41;;;;;;;102.03;57.88;;;4.10;99.90;;;;;;4961245;28;20138;-71
2024/03/07 08:18:09;;;;;;;98.18;56.30;;;4.20;99.90;;;;;;4958552;28;20055;-71
2024/03/07 08:20:38;;;;;;;107.88;53.67;;;4.20;99.90;;;;;;4953006;28;20057;-69
2024/03/07 08:23:07;;;;;;;94.10;53.47;;;4.30;99.90;;;;;;4953881;28;20074;-69
2024/03/07 08:25:34;;;;;;;97.03;51.40;;;4.20;99.90;;;;;;4962180;28;20049;-69
2024/03/07 08:28:01;;;;;;;93.28;51.60;;;4.20;99.90;;;;;;4972638;28;20116;-69
2024/03/07 08:30:28;;;;;;;99.78;51.15;;;4.20;99.90;;;;;;4973528;28;20049;-70
2024/03/07 08:32:56;;;;;;;101.43;51.50;;;4.40;99.90;;;;;;4953111;28;20053;-69
2024/03/07 08:35:24;;;;;;;97.40;48.22;;;4.20;99.90;;;;;;4965992;28;20076;-69
2024/03/07 08:37:53;;;;;;;100.95;48.53;;;4.10;99.90;;;;;;4946743;28;20599;-69
2024/03/07 08:40:30;;;;;;;101.40;52.08;;;4.10;99.90;;;;;;4970158;28;20053;-70
2024/03/07 08:42:59;;;;;;;97.68;49.85;;;4.10;99.90;;;;;;4966912;28;20051;-69
2024/03/07 08:45:28;;;;;;;96.32;52.13;;;4.10;99.90;;;;;;4975151;28;20041;-69
2024/03/07 08:47:57;;;;;;;103.53;50.97;;;4.20;99.90;;;;;;4973380;28;20050;-69
2024/03/07 08:50:27;;;;;;;101.30;52.92;;;4.40;99.90;;;;;;4962865;28;20133;-71
2024/03/07 08:52:56;;;;;;;112.70;53.35;;;4.40;99.90;;;;;;4948006;28;21683;-71
2024/03/07 08:55:27;;;;;;;96.72;48.50;;;4.50;99.90;;;;;;4958788;28;20739;-72
2024/03/07 08:57:54;;;;;;;92.38;50.22;;;4.70;99.90;;;;;;4945228;28;20141;-70
2024/03/07 09:00:23;;;;;;;91.90;48.17;;;4.70;99.90;;;;;;4951068;28;20062;-72
2024/03/07 09:02:53;;;;;;;91.82;43.55;;;4.70;99.90;;;;;;4969850;28;20141;-69
2024/03/07 09:05:22;;;;;;;90.78;47.97;;;4.70;99.90;;;;;;4974618;28;20116;-72
2024/03/07 09:07:51;;;;;;;88.45;49.67;;;4.80;99.90;;;;;;4984301;28;20042;-69
2024/03/07 09:10:19;;;;;;;92.32;49.38;;;4.80;99.90;;;;;;4987038;28;20059;-68
2024/03/07 09:12:52;;;;;;;87.93;46.78;;;5.00;99.90;;;;;;4973215;28;20141;-69
2024/03/07 09:15:21;;;;;;;83.55;46.65;;;5.10;99.90;;;;;;4972274;28;20165;-70
2024/03/07 09:17:50;;;;;;;88.18;48.33;;;5.30;99.90;;;;;;4988496;28;20137;-69
2024/03/07 09:20:18;;;;;;;75.43;45.15;;;5.30;99.90;;;;;;4965657;28;20058;-70
2024/03/07 09:22:54;;;;;;;76.88;45.95;;;5.40;99.90;;;;;;4962191;28;20061;-68
2024/03/07 09:25:24;;;;;;;76.72;44.65;;;5.30;99.90;;;;;;4976390;28;20077;-69
2024/03/07 09:27:51;;;;;;;72.35;43.63;;;5.30;99.90;;;;;;4973784;28;20034;-70
2024/03/07 09:30:24;;;;;;;87.05;46.20;;;5.30;99.90;;;;;;4953490;28;20050;-69
2024/03/07 09:32:51;;;;;;;73.20;46.67;;;5.40;99.90;;;;;;4976776;28;20049;-71
2024/03/07 09:35:19;;;;;;;72.35;44.47;;;5.60;99.90;;;;;;4972077;28;20093;-70
2024/03/07 09:37:46;;;;;;;67.32;42.92;;;5.70;99.90;;;;;;4972192;28;20070;-69
2024/03/07 09:40:14;;;;;;;75.60;42.95;;;5.60;99.90;;;;;;4974694;28;20153;-70
2024/03/07 09:42:47;;;;;;;72.55;43.78;;;5.60;99.90;;;;;;4977948;28;20050;-69
2024/03/07 09:45:17;;;;;;;65.83;42.33;;;5.70;99.90;;;;;;4972310;28;20077;-69
2024/03/07 09:47:50;;;;;;;72.53;42.08;;;5.70;99.90;;;;;;4974550;28;20582;-69
2024/03/07 09:50:24;;;;;;;66.43;40.75;;;5.80;99.90;;;;;;4951596;28;20145;-69
2024/03/07 09:52:53;;;;;;;64.70;39.55;;;5.70;99.90;;;;;;4975565;28;20170;-70
2024/03/07 09:55:24;;;;;;;70.63;42.63;;;5.60;99.90;;;;;;4978940;28;20053;-69
2024/03/07 09:57:55;;;;;;;68.28;43.58;;;5.60;99.90;;;;;;4972801;28;20061;-71
2024/03/07 10:00:25;;;;;;;63.22;43.00;;;5.70;99.90;;;;;;4971464;28;20047;-70
2024/03/07 10:03:01;;;;;;;63.95;41.40;;;5.70;99.90;;;;;;4970039;28;20137;-69
2024/03/07 10:05:30;;;;;;;60.95;42.08;;;5.80;99.90;;;;;;4972651;28;20058;-70
2024/03/07 10:07:59;;;;;;;57.38;39.22;;;5.80;99.90;;;;;;4963250;28;20073;-70
2024/03/07 10:10:27;;;;;;;59.58;40.97;;;5.90;99.90;;;;;;4957506;28;20050;-70
2024/03/07 10:12:54;;;;;;;54.67;40.05;;;6.00;99.90;;;;;;4971865;28;20050;-69
2024/03/07 10:15:22;;;;;;;51.10;38.83;;;5.90;99.90;;;;;;4971143;28;20850;-71
2024/03/07 10:17:50;;;;;;;40.25;32.75;;;6.10;99.90;;;;;;4983080;28;20045;-69
2024/03/07 10:20:24;;;;;;;54.22;40.25;;;6.10;99.90;;;;;;4956723;28;20082;-69
2024/03/07 10:22:52;;;;;;;51.88;39.50;;;6.10;99.90;;;;;;4967230;28;20046;-71
2024/03/07 10:25:27;;;;;;;52.58;39.22;;;6.20;99.90;;;;;;4971934;28;20627;-70
2024/03/07 10:27:57;;;;;;;57.78;39.72;;;6.40;99.90;;;;;;4974217;28;20050;-69
2024/03/07 10:30:29;;;;;;;51.20;36.13;;;6.30;99.90;;;;;;4966838;28;20043;-69
2024/03/07 10:32:58;;;;;;;46.83;38.33;;;6.40;99.90;;;;;;4965523;28;20726;-69
2024/03/07 10:35:28;;;;;;;54.17;41.20;;;6.50;99.90;;;;;;4964391;28;20046;-70
2024/03/07 10:38:00;;;;;;;53.88;40.05;;;6.70;99.90;;;;;;4973152;28;20046;-68
2024/03/07 10:40:30;;;;;;;53.88;41.38;;;6.70;99.90;;;;;;4975177;28;20076;-70
2024/03/07 10:43:02;;;;;;;51.15;39.47;;;6.70;99.90;;;;;;4973069;28;20081;-68
2024/03/07 10:45:34;;;;;;;50.42;39.58;;;7.00;99.90;;;;;;4968533;28;20057;-71
2024/03/07 10:48:05;;;;;;;44.53;38.90;;;7.00;99.90;;;;;;4961639;28;20102;-69
2024/03/07 10:50:38;;;;;;;51.40;41.95;;;7.20;99.90;;;;;;4987855;28;20443;-69
2024/03/07 10:53:18;;;;;;;54.97;42.03;;;7.00;99.90;;;;;;4972277;28;20046;-69
2024/03/07 10:56:01;;;;;;;52.38;41.28;;;7.20;99.90;;;;;;4967479;28;20539;-70
2024/03/07 10:58:36;;;;;;;50.67;39.83;;;7.40;99.90;;;;;;4973447;28;20064;-69
2024/03/07 11:01:06;;;;;;;51.47;39.45;;;7.60;99.90;;;;;;4951913;28;20042;-69
2024/03/07 11:03:35;;;;;;;50.45;42.40;;;7.50;99.90;;;;;;4979797;28;20050;-69
2024/03/07 11:06:06;;;;;;;51.88;42.78;;;7.30;99.90;;;;;;4963275;28;20105;-70
2024/03/07 11:08:36;;;;;;;47.55;40.42;;;7.60;99.90;;;;;;4968538;28;20546;-70
2024/03/07 11:11:04;;;;;;;50.55;45.00;;;8.10;99.90;;;;;;4965829;28;20294;-68
2024/03/07 11:13:33;;;;;;;59.83;47.17;;;8.10;99.90;;;;;;4955231;28;20054;-70
2024/03/07 11:16:04;;;;;;;51.15;44.63;;;7.90;99.90;;;;;;4981668;28;20049;-69
2024/03/07 11:18:31;;;;;;;53.90;43.05;;;7.70;99.90;;;;;;4974094;28;20709;-69
2024/03/07 11:20:59;;;;;;;50.90;42.00;;;7.30;99.90;;;;;;4989114;28;20690;-68
2024/03/07 11:23:38;;;;;;;50.83;44.33;;;7.20;99.90;;;;;;4969496;28;20072;-69
2024/03/07 11:26:07;;;;;;;51.30;45.80;;;7.50;99.90;;;;;;4959979;28;20062;-69
2024/03/07 11:28:39;;;;;;;50.15;44.85;;;7.90;99.90;;;;;;4969688;28;20260;-71
2024/03/07 11:31:10;;;;;;;51.40;45.47;;;8.20;99.90;;;;;;4965979;28;20637;-68
2024/03/07 11:33:40;;;;;;;47.65;41.72;;;8.50;99.90;;;;;;4980789;28;20069;-68
2024/03/07 11:36:09;;;;;;;51.75;42.55;;;8.20;99.90;;;;;;4965974;28;20135;-68
2024/03/07 11:38:37;;;;;;;48.20;41.95;;;8.00;99.90;;;;;;4947897;28;20568;-69
2024/03/07 11:41:12;;;;;;;51.35;45.80;;;8.00;99.90;;;;;;4951254;28;20113;-69
2024/03/07 11:43:42;;;;;;;51.50;45.70;;;7.60;99.90;;;;;;4968552;28;20742;-69
2024/03/07 11:46:11;;;;;;;51.15;44.25;;;7.40;99.90;;;;;;4967946;28;20042;-69
2024/03/07 11:48:41;;;;;;;51.20;43.15;;;7.40;99.90;;;;;;4969633;28;20140;-69
2024/03/07 11:51:17;;;;;;;51.13;45.70;;;7.30;99.90;;;;;;4972907;28;20539;-68
2024/03/07 11:53:47;;;;;;;53.92;43.50;;;7.20;99.90;;;;;;4954282;28;20069;-68
2024/03/07 11:56:16;;;;;;;50.55;42.47;;;7.20;99.90;;;;;;4970112;28;20137;-69
2024/03/07 11:58:44;;;;;;;46.38;39.10;;;7.00;99.90;;;;;;4976277;28;20081;-70
2024/03/07 12:01:13;;;;;;;55.70;41.97;;;7.20;99.90;;;;;;4966032;28;20070;-69
2024/03/07 12:03:42;;;;;;;54.53;42.40;;;7.40;99.90;;;;;;4953728;28;20049;-69
2024/03/07 12:06:12;;;;;;;49.53;40.78;;;7.60;99.90;;;;;;4961612;28;20046;-70
2024/03/07 12:08:41;;;;;;;52.78;41.15;;;7.70;99.90;;;;;;4974281;28;20069;-71
2024/03/07 12:11:12;;;;;;;54.47;39.17;;;7.70;99.90;;;;;;4970619;28;20066;-70
2024/03/07 12:13:40;;;;;;;48.13;40.88;;;7.50;99.90;;;;;;4972407;28;20049;-70
2024/03/07 12:16:08;;;;;;;54.20;42.40;;;7.50;99.90;;;;;;4971535;28;20109;-70
2024/03/07 12:18:36;;;;;;;54.70;42.03;;;7.60;99.90;;;;;;4978827;28;20058;-69
2024/03/07 12:21:08;;;;;;;51.58;41.70;;;7.80;99.90;;;;;;4967010;28;20042;-68
2024/03/07 12:23:38;;;;;;;53.22;46.65;;;7.90;99.90;;;;;;4954221;28;20049;-70
2024/03/07 12:26:05;;;;;;;56.55;43.22;;;7.80;99.90;;;;;;4980634;28;20519;-68
2024/03/07 12:28:33;;;;;;;50.80;45.20;;;7.50;99.90;;;;;;4974993;28;20099;-69
2024/03/07 12:31:02;;;;;;;52.25;42.85;;;7.40;99.90;;;;;;4971186;28;20066;-69
2024/03/07 12:33:32;;;;;;;49.42;41.75;;;7.50;99.90;;;;;;4974641;28;20050;-70
2024/03/07 12:36:09;;;;;;;51.60;40.10;;;7.60;99.90;;;;;;4970032;28;20493;-70
2024/03/07 12:38:40;;;;;;;50.10;41.08;;;7.70;99.90;;;;;;4961766;28;20042;-69
2024/03/07 12:41:15;;;;;;;47.67;41.28;;;7.80;99.90;;;;;;4968625;28;20050;-68
2024/03/07 12:43:45;;;;;;;58.13;42.45;;;7.70;99.90;;;;;;4970053;28;20055;-69